ELP weather

El Paso International Airport
El Paso, Texas, United States

Public forecast

Using degrees Fahrenheit for public forecast. Weather courtesy of forecast.io.

Current aviation weather report (METAR) for El Paso International Airport

Retrieved 2019/11/21 19:51 UTC (56 minutes ago):

KELP 211951Z 20015G28KT 10SM SCT075 SCT095 20/05 A2985 RMK AO2 PK WND 21029/1941 SLP063 CB DSNT NW-N TCU DSNT SW AND W-NW T02000050

Aviation forecast (TAF) for El Paso International Airport

Retrieved 2019/11/21 18:24 UTC (2 hours ago):

TAF KELP 211720Z 2118/2218 18012KT P6SM SCT070 BKN130 FM212100 22015KT 6SM -SHRA BKN040 TEMPO 2121/2201 3SM TSRA BKN030CB FM220400 27010KT P6SM SCT100 FM221200 27008KT P6SM FEW250